createdAt,value
2018-06-13T00:01:41.645Z,100648.28
2018-06-13T00:04:10.051Z,100644.80
2018-06-13T00:06:38.619Z,100647.40
2018-06-13T00:09:08.700Z,100644.69
2018-06-13T00:11:37.482Z,100646.91
2018-06-13T00:14:06.438Z,100643.43
2018-06-13T00:16:34.917Z,100646.02
2018-06-13T00:19:03.329Z,100642.50
2018-06-13T00:21:32.021Z,100647.34
2018-06-13T00:24:00.485Z,100646.36
2018-06-13T00:26:28.897Z,100649.70
2018-06-13T00:28:57.397Z,100651.38
2018-06-13T00:31:26.128Z,100653.57
2018-06-13T00:33:55.489Z,100656.66
2018-06-13T00:36:23.901Z,100658.41
2018-06-13T00:38:52.848Z,100659.20
2018-06-13T00:41:21.261Z,100664.75
2018-06-13T00:43:50.121Z,100670.81
2018-06-13T00:46:18.662Z,100674.25
2018-06-13T00:48:47.061Z,100676.44
2018-06-13T00:51:15.483Z,100676.48
2018-06-13T00:53:43.985Z,100678.75
2018-06-13T00:56:23.894Z,100673.48
2018-06-13T00:58:52.331Z,100680.98
2018-06-13T01:01:20.737Z,100681.34
2018-06-13T01:03:49.648Z,100677.31
2018-06-13T01:06:18.097Z,100678.57
2018-06-13T01:08:46.506Z,100675.89
2018-06-13T01:11:15.108Z,100674.95
2018-06-13T01:13:43.731Z,100674.53
2018-06-13T01:16:12.142Z,100680.30
2018-06-13T01:18:40.932Z,100682.95
2018-06-13T01:21:09.357Z,100682.50
2018-06-13T01:23:38.218Z,100678.86
2018-06-13T01:26:06.966Z,100692.42
2018-06-13T01:28:35.413Z,100692.42
2018-06-13T01:31:03.967Z,100696.39
2018-06-13T01:33:32.554Z,100693.75
2018-06-13T01:36:01.020Z,100692.47
2018-06-13T01:38:36.773Z,100695.95
2018-06-13T01:41:05.201Z,100703.38
2018-06-13T01:43:33.621Z,100708.61
2018-06-13T01:46:02.273Z,100704.20
2018-06-13T01:48:30.734Z,100702.44
2018-06-13T01:50:59.642Z,100707.24
2018-06-13T01:53:29.593Z,100705.50
2018-06-13T01:55:58.125Z,100709.88
2018-06-13T01:58:26.685Z,100713.41
2018-06-13T02:00:55.338Z,100701.58
2018-06-13T02:03:23.788Z,100697.63
2018-06-13T02:05:52.411Z,100698.46
2018-06-13T02:08:20.929Z,100706.33
2018-06-13T02:10:49.361Z,100699.78
2018-06-13T02:13:17.876Z,100702.41
2018-06-13T02:15:46.704Z,100697.13
2018-06-13T02:18:15.121Z,100691.73
2018-06-13T02:20:43.538Z,100688.08
2018-06-13T02:23:12.370Z,100690.60
2018-06-13T02:25:40.805Z,100686.17
2018-06-13T02:28:09.218Z,100688.32
2018-06-13T02:30:37.701Z,100694.92
2018-06-13T02:33:06.269Z,100692.83
2018-06-13T02:35:34.857Z,100702.60
2018-06-13T02:38:03.282Z,100696.02
2018-06-13T02:40:31.713Z,100689.50
2018-06-13T02:43:00.538Z,100691.30
2018-06-13T02:45:30.168Z,100694.84
2018-06-13T02:47:58.577Z,100692.72
2018-06-13T02:50:27.099Z,100698.97
2018-06-13T02:52:55.767Z,100695.15
2018-06-13T02:55:24.212Z,100688.19
2018-06-13T02:57:52.954Z,100695.70
2018-06-13T03:00:21.380Z,100661.70
2018-06-13T03:02:49.829Z,100692.25
2018-06-13T03:05:18.405Z,100696.70
2018-06-13T03:07:47.166Z,100697.63
2018-06-13T03:10:15.745Z,100697.66
2018-06-13T03:12:44.217Z,100695.48
2018-06-13T03:15:13.131Z,100697.68
2018-06-13T03:17:41.654Z,100692.46
2018-06-13T03:20:10.062Z,100688.57
2018-06-13T03:22:38.566Z,100687.73
2018-06-13T03:25:08.730Z,100686.45
2018-06-13T03:27:37.153Z,100687.80
2018-06-13T03:30:05.876Z,100687.41
2018-06-13T03:32:34.334Z,100685.70
2018-06-13T03:35:02.746Z,100692.77
2018-06-13T03:37:31.359Z,100701.58
2018-06-13T03:40:00.058Z,100697.23
2018-06-13T03:42:28.473Z,100697.73
2018-06-13T03:44:57.357Z,100689.88
2018-06-13T03:47:26.378Z,100688.17
2018-06-13T03:49:54.786Z,100691.30
2018-06-13T03:52:23.437Z,100694.91
2018-06-13T03:54:52.160Z,100696.28
2018-06-13T03:57:20.608Z,100699.86
2018-06-13T03:59:49.029Z,100693.31
2018-06-13T04:02:17.994Z,100696.45
2018-06-13T04:04:46.406Z,100694.74
2018-06-13T04:07:15.530Z,100693.03
2018-06-13T04:09:44.267Z,100694.86
2018-06-13T04:12:13.006Z,100690.94
2018-06-13T04:14:41.629Z,100699.32
2018-06-13T04:17:10.106Z,100693.14
2018-06-13T04:19:39.629Z,100695.80
2018-06-13T04:22:08.558Z,100693.18
2018-06-13T04:24:36.991Z,100692.34
2018-06-13T04:27:05.637Z,100695.04
2018-06-13T04:29:34.131Z,100693.30
2018-06-13T04:32:02.556Z,100689.88
2018-06-13T04:34:31.379Z,100692.14
2018-06-13T04:36:59.918Z,100693.06
2018-06-13T04:39:28.376Z,100692.22
2018-06-13T04:41:56.967Z,100692.28
2018-06-13T04:44:25.598Z,100696.79
2018-06-13T04:46:54.082Z,100695.58
2018-06-13T04:49:22.493Z,100700.94
2018-06-13T04:51:51.549Z,100699.30
2018-06-13T04:54:19.985Z,100697.28
2018-06-13T04:56:48.389Z,100700.09
2018-06-13T04:59:16.984Z,100695.41
2018-06-13T05:01:45.425Z,100699.03
2018-06-13T05:04:13.861Z,100696.84
2018-06-13T05:06:42.645Z,100701.70
2018-06-13T05:09:12.073Z,100706.59
2018-06-13T05:11:40.485Z,100706.21
2018-06-13T05:14:09.054Z,100704.52
2018-06-13T05:16:37.589Z,100712.47
2018-06-13T05:19:06.013Z,100713.34
2018-06-13T05:21:34.625Z,100717.76
2018-06-13T05:24:03.054Z,100716.03
2018-06-13T05:26:31.514Z,100721.35
2018-06-13T05:29:00.878Z,100723.59
2018-06-13T05:31:29.604Z,100717.40
2018-06-13T05:33:58.026Z,100722.24
2018-06-13T05:36:26.869Z,100719.59
2018-06-13T05:38:55.319Z,100719.13
2018-06-13T05:41:23.774Z,100713.41
2018-06-13T05:43:52.667Z,100714.30
2018-06-13T05:46:21.103Z,100719.16
2018-06-13T05:48:49.521Z,100720.92
2018-06-13T05:51:18.473Z,100721.34
2018-06-13T05:53:46.940Z,100724.42
2018-06-13T05:56:15.433Z,100727.09
2018-06-13T05:58:43.925Z,100728.87
2018-06-13T06:01:12.459Z,100729.77
2018-06-13T06:03:40.845Z,100724.92
2018-06-13T06:06:09.996Z,100724.97
2018-06-13T06:08:38.467Z,100723.66
2018-06-13T06:11:06.877Z,100724.10
2018-06-13T06:13:35.777Z,100724.55
2018-06-13T06:16:04.659Z,100730.73
2018-06-13T06:18:33.110Z,100722.79
2018-06-13T06:21:01.551Z,100724.55
2018-06-13T06:23:30.076Z,100722.79
2018-06-13T06:25:58.522Z,100722.79
2018-06-13T06:28:27.229Z,100710.88
2018-06-13T06:30:55.824Z,100714.84
2018-06-13T06:33:24.233Z,100714.84
2018-06-13T06:35:53.153Z,100715.72
2018-06-13T06:38:21.674Z,100718.81
2018-06-13T06:40:50.089Z,100709.98
2018-06-13T06:43:18.714Z,100717.05
2018-06-13T06:45:47.226Z,100709.55
2018-06-13T06:48:15.641Z,100707.78
2018-06-13T06:50:44.391Z,100712.64
2018-06-13T06:53:12.924Z,100706.02
2018-06-13T06:55:41.467Z,100702.48
2018-06-13T06:58:09.990Z,100706.88
2018-06-13T07:00:38.514Z,100708.17
2018-06-13T07:03:06.967Z,100705.48
2018-06-13T07:05:35.961Z,100704.58
2018-06-13T07:08:04.409Z,100704.06
2018-06-13T07:10:32.845Z,100705.30
2018-06-13T07:13:01.306Z,100703.86
2018-06-13T07:15:29.817Z,100704.61
2018-06-13T07:17:58.250Z,100704.53
2018-06-13T07:20:26.853Z,100699.95
2018-06-13T07:22:55.437Z,100703.71
2018-06-13T07:25:24.073Z,100704.05
2018-06-13T07:27:52.922Z,100704.78
2018-06-13T07:30:21.597Z,100702.83
2018-06-13T07:32:50.197Z,100697.30
2018-06-13T07:35:18.953Z,100708.09
2018-06-13T07:37:47.501Z,100706.56
2018-06-13T07:40:15.945Z,100705.84
2018-06-13T07:42:44.625Z,100701.34
2018-06-13T07:45:13.506Z,100707.64
2018-06-13T07:47:42.066Z,100708.08
2018-06-13T07:50:10.470Z,100696.43
2018-06-13T07:52:39.169Z,100694.35
2018-06-13T07:55:07.823Z,100695.13
2018-06-13T07:57:36.243Z,100699.15
2018-06-13T08:00:05.549Z,100698.81
2018-06-13T08:02:35.125Z,100697.98
2018-06-13T08:05:03.667Z,100703.23
2018-06-13T08:07:32.436Z,100701.64
2018-06-13T08:10:00.993Z,100690.47
2018-06-13T08:12:29.466Z,100694.14
2018-06-13T08:14:58.170Z,100703.38
2018-06-13T08:17:26.905Z,100696.16
2018-06-13T08:19:55.362Z,100680.58
2018-06-13T08:22:24.309Z,100699.23
2018-06-13T08:24:53.954Z,100694.84
2018-06-13T08:27:22.498Z,100695.31
2018-06-13T08:29:50.927Z,100705.48
2018-06-13T08:32:20.263Z,100697.93
2018-06-13T08:34:48.681Z,100697.07
2018-06-13T08:37:17.525Z,100703.69
2018-06-13T08:39:46.061Z,100704.59
2018-06-13T08:42:14.458Z,100703.27
2018-06-13T08:44:43.259Z,100700.44
2018-06-13T08:47:11.854Z,100702.17
2018-06-13T08:49:40.270Z,100703.23
2018-06-13T08:52:09.162Z,100702.67
2018-06-13T08:54:37.804Z,100702.13
2018-06-13T08:57:06.515Z,100702.81
2018-06-13T08:59:34.957Z,100696.79
2018-06-13T09:02:03.869Z,100702.73
2018-06-13T09:04:32.288Z,100703.48
2018-06-13T09:07:00.906Z,100710.12
2018-06-13T09:09:29.619Z,100712.88
2018-06-13T09:11:58.066Z,100704.14
2018-06-13T09:14:26.757Z,100705.12
2018-06-13T09:16:55.714Z,100706.47
2018-06-13T09:19:24.117Z,100702.69
2018-06-13T09:21:52.657Z,100710.91
2018-06-13T09:24:21.154Z,100711.33
2018-06-13T09:26:49.562Z,100709.58
2018-06-13T09:29:18.265Z,100704.40
2018-06-13T09:31:46.780Z,100710.81
2018-06-13T09:34:15.514Z,100704.33
2018-06-13T09:36:43.958Z,100709.83
2018-06-13T09:39:12.441Z,100706.36
2018-06-13T09:41:46.123Z,100702.20
2018-06-13T09:44:14.743Z,100706.93
2018-06-13T09:46:48.918Z,100701.39
2018-06-13T09:49:11.660Z,100709.33
2018-06-13T09:51:40.642Z,100712.03
2018-06-13T09:54:09.061Z,100707.18
2018-06-13T09:56:37.527Z,100707.44
2018-06-13T09:59:11.647Z,100707.98
2018-06-13T10:01:45.455Z,100707.54
2018-06-13T10:04:14.417Z,100707.34
2018-06-13T10:06:42.914Z,100697.58
2018-06-13T10:09:11.498Z,100701.30
2018-06-13T10:11:40.270Z,100705.57
2018-06-13T10:14:08.689Z,100703.31
2018-06-13T10:16:37.130Z,100707.86
2018-06-13T10:19:05.799Z,100702.95
2018-06-13T10:21:34.233Z,100705.00
2018-06-13T10:24:02.806Z,100702.65
2018-06-13T10:26:31.660Z,100711.08
2018-06-13T10:29:00.141Z,100709.05
2018-06-13T10:31:28.717Z,100703.22
2018-06-13T10:33:57.525Z,100709.14
2018-06-13T10:36:26.150Z,100708.11
2018-06-13T10:38:54.579Z,100700.78
2018-06-13T10:41:23.082Z,100704.70
2018-06-13T10:43:51.556Z,100702.59
2018-06-13T10:46:20.008Z,100705.05
2018-06-13T10:48:48.902Z,100703.09
2018-06-13T10:51:17.374Z,100697.55
2018-06-13T10:53:45.803Z,100695.14
2018-06-13T10:56:14.751Z,100694.31
2018-06-13T10:58:43.402Z,100706.38
2018-06-13T11:01:12.199Z,100705.36
2018-06-13T11:03:41.014Z,100700.54
2018-06-13T11:06:09.489Z,100714.70
2018-06-13T11:08:37.929Z,100716.33
2018-06-13T11:11:06.864Z,100706.43
2018-06-13T11:13:35.277Z,100717.39
2018-06-13T11:16:03.730Z,100699.58
2018-06-13T11:18:32.220Z,100702.27
2018-06-13T11:21:00.649Z,100710.44
2018-06-13T11:23:29.910Z,100712.96
2018-06-13T11:25:58.900Z,100704.85
2018-06-13T11:28:27.345Z,100711.92
2018-06-13T11:30:55.786Z,100710.80
2018-06-13T11:33:24.390Z,100706.14
2018-06-13T11:35:52.808Z,100708.01
2018-06-13T11:38:21.270Z,100714.38
2018-06-13T11:40:49.757Z,100711.02
2018-06-13T11:43:18.233Z,100723.69
2018-06-13T11:45:46.678Z,100722.26
2018-06-13T11:48:15.243Z,100729.20
2018-06-13T11:50:43.678Z,100721.39
2018-06-13T11:53:12.168Z,100722.33
2018-06-13T11:55:40.766Z,100725.13
2018-06-13T11:58:09.182Z,100716.95
2018-06-13T12:00:37.627Z,100725.19
2018-06-13T12:03:06.199Z,100725.62
2018-06-13T12:05:34.893Z,100727.20
2018-06-13T12:08:03.373Z,100731.08
2018-06-13T12:10:32.406Z,100734.28
2018-06-13T12:13:00.994Z,100732.06
2018-06-13T12:15:29.461Z,100736.47
2018-06-13T12:17:58.100Z,100731.64
2018-06-13T12:20:26.585Z,100731.27
2018-06-13T12:22:55.062Z,100737.15
2018-06-13T12:25:23.594Z,100741.61
2018-06-13T12:27:52.593Z,100730.64
2018-06-13T12:30:21.133Z,100732.52
2018-06-13T12:32:49.721Z,100733.28
2018-06-13T12:35:18.694Z,100735.67
2018-06-13T12:37:47.415Z,100730.97
2018-06-13T12:40:15.865Z,100732.03
2018-06-13T12:42:44.537Z,100730.42
2018-06-13T12:45:12.977Z,100735.81
2018-06-13T12:47:41.480Z,100735.42
2018-06-13T12:50:10.314Z,100740.68
2018-06-13T12:52:39.001Z,100735.05
2018-06-13T12:55:07.872Z,100744.53
2018-06-13T12:57:36.654Z,100756.14
2018-06-13T13:00:05.744Z,100750.38
2018-06-13T13:02:34.563Z,100746.07
2018-06-13T13:05:03.327Z,100743.05
2018-06-13T13:07:31.929Z,100745.80
2018-06-13T13:10:00.685Z,100744.52
2018-06-13T13:12:29.372Z,100747.69
2018-06-13T13:14:57.851Z,100753.08
2018-06-13T13:17:26.286Z,100766.50
2018-06-13T13:19:55.041Z,100566.55
2018-06-13T13:22:23.481Z,100763.61
2018-06-13T13:24:52.090Z,100760.53
2018-06-13T13:27:20.865Z,100761.89
2018-06-13T13:29:49.336Z,100766.83
2018-06-13T13:32:17.754Z,100759.80
2018-06-13T13:34:46.245Z,100767.37
2018-06-13T13:37:15.470Z,100757.64
2018-06-13T13:39:44.052Z,100770.98
2018-06-13T13:42:12.469Z,100760.41
2018-06-13T13:44:40.913Z,100775.87
2018-06-13T13:47:09.477Z,100767.94
2018-06-13T13:49:37.889Z,100770.14
2018-06-13T13:52:06.567Z,100778.58
2018-06-13T13:54:34.985Z,100773.34
2018-06-13T13:57:03.561Z,100783.52
2018-06-13T13:59:32.274Z,100784.91
2018-06-13T14:02:00.732Z,100783.64
2018-06-13T14:04:29.232Z,100788.08
2018-06-13T14:06:57.760Z,100791.62
2018-06-13T14:09:26.338Z,100788.56
2018-06-13T14:11:54.768Z,100788.13
2018-06-13T14:14:23.238Z,100787.26
2018-06-13T14:16:52.021Z,100785.46
2018-06-13T14:19:20.582Z,100786.34
2018-06-13T14:21:49.242Z,100785.92
2018-06-13T14:24:17.774Z,100787.25
2018-06-13T14:26:46.276Z,100779.74
2018-06-13T14:29:15.001Z,100779.74
2018-06-13T14:31:43.825Z,100784.16
2018-06-13T14:34:12.251Z,100788.14
2018-06-13T14:36:40.705Z,100791.67
2018-06-13T14:39:10.718Z,100789.91
2018-06-13T14:41:39.378Z,100792.56
2018-06-13T14:44:08.217Z,100801.84
2018-06-13T14:46:36.750Z,100796.97
2018-06-13T14:49:05.176Z,100798.72
2018-06-13T14:51:33.943Z,100801.81
2018-06-13T14:54:02.371Z,100811.08
2018-06-13T14:56:32.131Z,100811.53
2018-06-13T14:59:01.967Z,100808.88
2018-06-13T15:01:31.146Z,100821.23
2018-06-13T15:03:59.901Z,100811.06
2018-06-13T15:06:28.348Z,100814.59
2018-06-13T15:08:57.066Z,100819.02
2018-06-13T15:11:25.635Z,100820.33
2018-06-13T15:13:54.094Z,100822.11
2018-06-13T15:16:22.801Z,100822.55
2018-06-13T15:18:51.432Z,100817.68
2018-06-13T15:21:19.915Z,100822.08
2018-06-13T15:23:48.486Z,100820.75
2018-06-13T15:26:16.897Z,100818.53
2018-06-13T15:28:45.705Z,100824.72
2018-06-13T15:31:14.241Z,100837.95
2018-06-13T15:33:42.838Z,100840.06
2018-06-13T15:36:11.341Z,100833.40
2018-06-13T15:38:40.230Z,100839.13
2018-06-13T15:41:10.049Z,100839.11
2018-06-13T15:43:39.118Z,100839.55
2018-06-13T15:46:07.898Z,100838.21
2018-06-13T15:48:36.580Z,100844.34
2018-06-13T15:51:05.347Z,100849.15
2018-06-13T15:53:33.969Z,100848.64
2018-06-13T15:56:02.631Z,100848.59
2018-06-13T15:58:32.250Z,100845.90
2018-06-13T16:01:01.101Z,100847.63
2018-06-13T16:03:29.549Z,100840.53
2018-06-13T16:05:58.145Z,100839.19
2018-06-13T16:08:27.050Z,100842.69
2018-06-13T16:10:55.544Z,100846.20
2018-06-13T16:13:24.061Z,100844.84
2018-06-13T16:15:52.917Z,100851.88
2018-06-13T16:18:21.346Z,100854.89
2018-06-13T16:20:49.892Z,100854.87
2018-06-13T16:23:18.454Z,100856.17
2018-06-13T16:25:47.018Z,100852.66
2018-06-13T16:28:15.585Z,100851.35
2018-06-13T16:30:45.242Z,100847.41
2018-06-13T16:33:13.665Z,100848.31
2018-06-13T16:35:42.166Z,100843.51
2018-06-13T16:38:11.098Z,100846.66
2018-06-13T16:40:39.537Z,100851.98
2018-06-13T16:43:08.469Z,100851.59
2018-06-13T16:45:37.245Z,100840.63
2018-06-13T16:48:05.840Z,100841.11
2018-06-13T16:50:47.098Z,100841.13
2018-06-13T16:53:26.697Z,100835.88
2018-06-13T16:55:55.335Z,100839.45
2018-06-13T16:58:23.741Z,100842.58
2018-06-13T17:00:52.163Z,100840.83
2018-06-13T17:03:21.558Z,100836.41
2018-06-13T17:05:50.546Z,100830.68
2018-06-13T17:08:18.998Z,100831.14
2018-06-13T17:10:47.789Z,100824.99
2018-06-13T17:13:16.202Z,100831.20
2018-06-13T17:15:44.624Z,100833.45
2018-06-13T17:18:13.815Z,100830.39
2018-06-13T17:20:42.243Z,100830.88
2018-06-13T17:23:10.653Z,100835.69
2018-06-13T17:25:39.271Z,100834.78
2018-06-13T17:28:07.689Z,100829.48
2018-06-13T17:30:36.121Z,100831.70
2018-06-13T17:33:04.913Z,100830.37
2018-06-13T17:35:33.325Z,100834.78
2018-06-13T17:38:01.738Z,100834.78
2018-06-13T17:40:30.495Z,100834.34
2018-06-13T17:42:58.909Z,100832.56
2018-06-13T17:45:27.726Z,100832.55
2018-06-13T17:47:56.508Z,100825.05
2018-06-13T17:50:24.929Z,100829.91
2018-06-13T17:52:53.344Z,100825.47
2018-06-13T17:55:22.962Z,100827.67
2018-06-13T17:57:51.381Z,100833.41
2018-06-13T18:00:19.854Z,100825.02
2018-06-13T18:02:48.461Z,100821.03
2018-06-13T18:05:16.877Z,100820.14
2018-06-13T18:07:45.294Z,100824.55
2018-06-13T18:10:13.917Z,100812.63
2018-06-13T18:12:42.333Z,100813.94
2018-06-13T18:15:10.746Z,100812.17
2018-06-13T18:17:39.713Z,100798.91
2018-06-13T18:20:08.273Z,100798.00
2018-06-13T18:22:37.497Z,100801.95
2018-06-13T18:25:06.129Z,100794.02
2018-06-13T18:27:34.554Z,100797.54
2018-06-13T18:30:03.176Z,100802.38
2018-06-13T18:32:31.686Z,100805.91
2018-06-13T18:35:00.172Z,100811.66
2018-06-13T18:37:28.596Z,100808.12
2018-06-13T18:39:57.209Z,100813.44
2018-06-13T18:42:25.626Z,100814.33
2018-06-13T18:44:54.046Z,100812.55
2018-06-13T18:47:22.785Z,100814.75
2018-06-13T18:49:51.357Z,100809.00
2018-06-13T18:52:19.786Z,100802.81
2018-06-13T18:54:48.325Z,100795.31
2018-06-13T18:57:16.757Z,100796.62
2018-06-13T18:59:45.178Z,100806.75
2018-06-13T19:02:14.514Z,100805.41
2018-06-13T19:04:42.931Z,100800.13
2018-06-13T19:07:11.350Z,100809.83
2018-06-13T19:09:39.898Z,100811.15
2018-06-13T19:12:08.324Z,100810.70
2018-06-13T19:14:36.744Z,100812.04
2018-06-13T19:17:05.417Z,100811.60
2018-06-13T19:19:33.846Z,100815.14
2018-06-13T19:22:02.277Z,100824.39
2018-06-13T19:24:30.993Z,100823.52
2018-06-13T19:26:59.415Z,100825.27
2018-06-13T19:29:27.938Z,100823.95
2018-06-13T19:31:56.584Z,100827.03
2018-06-13T19:34:25.012Z,100826.13
2018-06-13T19:36:53.459Z,100830.97
2018-06-13T19:39:22.114Z,100832.72
2018-06-13T19:41:50.522Z,100829.63
2018-06-13T19:44:18.958Z,100827.39
2018-06-13T19:46:47.729Z,100830.47
2018-06-13T19:49:16.291Z,100841.91
2018-06-13T19:51:44.895Z,100838.80
2018-06-13T19:54:18.738Z,100838.81
2018-06-13T19:56:47.474Z,100840.11
2018-06-13T19:59:16.061Z,100839.66
2018-06-13T20:01:44.523Z,100833.48
2018-06-13T20:04:18.134Z,100831.25
2018-06-13T20:06:46.611Z,100836.53
2018-06-13T20:09:15.157Z,100830.36
2018-06-13T20:11:43.589Z,100833.43
2018-06-13T20:14:17.469Z,100828.12
2018-06-13T20:16:52.289Z,100825.02
2018-06-13T20:19:26.106Z,100690.95
2018-06-13T20:21:56.062Z,100829.42
2018-06-13T20:24:24.645Z,100831.55
2018-06-13T20:27:00.075Z,100831.55
2018-06-13T20:29:33.770Z,100832.86
2018-06-13T20:32:02.445Z,100828.44
2018-06-13T20:34:30.934Z,100831.50
2018-06-13T20:37:10.750Z,100836.33
2018-06-13T20:39:39.297Z,100834.11
2018-06-13T20:42:07.927Z,100840.73
2018-06-13T20:44:36.552Z,100839.82
2018-06-13T20:47:05.452Z,100844.66
2018-06-13T20:49:34.304Z,100850.81
2018-06-13T20:52:03.664Z,100849.03
2018-06-13T20:54:32.148Z,100843.72
2018-06-13T20:57:00.572Z,100843.69
2018-06-13T20:59:29.172Z,100845.02
2018-06-13T21:01:57.600Z,100839.72
2018-06-13T21:04:26.857Z,100846.77
2018-06-13T21:06:55.382Z,100816.25
2018-06-13T21:09:23.805Z,100844.58
2018-06-13T21:14:42.563Z,100846.76
2018-06-13T21:17:11.069Z,100848.09
2018-06-13T21:19:39.560Z,100856.02
2018-06-13T21:22:08.303Z,100851.16
2018-06-13T21:24:36.927Z,100858.22
2018-06-13T21:27:05.931Z,100846.74
2018-06-13T21:29:34.920Z,100846.72
2018-06-13T21:32:03.464Z,100851.11
2018-06-13T21:34:31.917Z,100859.03
2018-06-13T21:37:00.863Z,100856.41
2018-06-13T21:39:29.305Z,100863.00
2018-06-13T21:41:57.709Z,100859.92
2018-06-13T21:44:26.286Z,100863.89
2018-06-13T21:46:54.728Z,100855.91
2018-06-13T21:49:23.190Z,100863.39
2018-06-13T21:51:51.759Z,100863.36
2018-06-13T21:54:20.363Z,100863.78
2018-06-13T21:56:48.761Z,100865.52
2018-06-13T21:59:17.253Z,100864.17
2018-06-13T22:01:45.729Z,100855.77
2018-06-13T22:04:14.121Z,100856.19
2018-06-13T22:06:42.635Z,100843.37
2018-06-13T22:09:12.053Z,100845.55
2018-06-13T22:11:45.669Z,100842.44
2018-06-13T22:14:14.661Z,100839.75
2018-06-13T22:16:43.065Z,100837.08
2018-06-13T22:19:11.485Z,100841.86
2018-06-13T22:21:40.033Z,100844.46
2018-06-13T22:24:08.457Z,100841.36
2018-06-13T22:26:36.891Z,100852.33
2018-06-13T22:29:05.766Z,100846.56
2018-06-13T22:31:34.237Z,100847.83
2018-06-13T22:34:03.195Z,100842.52
2018-06-13T22:36:31.801Z,100842.11
2018-06-13T22:39:00.233Z,100848.72
2018-06-13T22:41:28.681Z,100839.45
2018-06-13T22:43:57.541Z,100842.08
2018-06-13T22:46:26.283Z,100835.89
2018-06-13T22:48:54.783Z,100833.66
2018-06-13T22:51:23.433Z,100842.88
2018-06-13T22:53:52.144Z,100843.31
2018-06-13T22:56:20.643Z,100838.89
2018-06-13T22:58:49.665Z,100833.14
2018-06-13T23:01:18.094Z,100838.83
2018-06-13T23:03:46.757Z,100837.06
2018-06-13T23:06:15.810Z,100834.34
2018-06-13T23:08:44.216Z,100830.77
2018-06-13T23:11:12.621Z,100825.04
2018-06-13T23:13:41.305Z,100826.34
2018-06-13T23:16:09.718Z,100827.22
2018-06-13T23:18:38.125Z,100828.11
2018-06-13T23:21:06.649Z,100827.22
2018-06-13T23:23:35.058Z,100822.86
2018-06-13T23:26:03.461Z,100823.74
2018-06-13T23:28:32.547Z,100820.76
2018-06-13T23:31:01.410Z,100816.87
2018-06-13T23:33:29.845Z,100821.77
2018-06-13T23:35:58.405Z,100822.26
2018-06-13T23:38:26.805Z,100820.54
2018-06-13T23:40:55.214Z,100817.48
2018-06-13T23:43:23.811Z,100815.33
2018-06-13T23:45:52.224Z,100816.70
2018-06-13T23:48:20.625Z,100816.30
2018-06-13T23:50:49.097Z,100813.24
2018-06-13T23:53:17.968Z,100810.60
2018-06-13T23:55:46.655Z,100811.06
2018-06-13T23:58:15.448Z,100808.89
